Time;durP1;ratioP1;P1;durP2;ratioP2;P2;SDS_P1;SDS_P2;PMS_P1;PMS_P2;Temp;Humidity;BMP_temperature;BMP_pressure;BME280_temperature;BME280_humidity;BME280_pressure;Samples;Min_cycle;Max_cycle;Signal;HPM_P1;HPM_P2
2021/06/11 15:00:27;;;;;;;0.00;0.00;;;;;;;;;;5111922;28;20523;-63
2021/06/11 15:05:58;;;;;;;0.00;0.00;;;;;;;;;;5110568;28;20173;-64
2021/06/11 15:08:29;;;;;;;1.33;0.87;;;;;;;;;;5107812;28;20170;-63
2021/06/11 15:11:02;;;;;;;0.10;0.10;;;;;;;;;;5106358;28;20256;-63
2021/06/11 15:13:31;;;;;;;0.00;0.00;;;;;;;;;;5103426;28;20177;-59
2021/06/11 15:15:58;;;;;;;0.00;0.00;;;;;;;;;;5097499;28;20594;-59
2021/06/11 15:18:27;;;;;;;17.33;1.90;;;;;;;;;;5096928;28;20189;-59
2021/06/11 15:21:01;;;;;;;5.50;0.40;;;;;;;;;;5104010;28;20245;-60
2021/06/11 15:23:29;;;;;;;3.33;0.90;;;;;;;;;;5102510;28;20542;-60
2021/06/11 15:25:55;;;;;;;3.27;1.73;;;;;;;;;;5102764;28;20911;-60
2021/06/11 15:28:22;;;;;;;0.80;0.70;;;;;;;;;;5103286;28;20179;-60
2021/06/11 15:30:52;;;;;;;0.20;0.20;;;;;;;;;;5103650;28;20182;-60
2021/06/11 15:33:18;;;;;;;0.23;0.10;;;;;;;;;;5104816;28;20543;-60
2021/06/11 15:35:45;;;;;;;0.17;0.17;;;;;;;;;;5098594;28;20951;-61
2021/06/11 15:38:19;;;;;;;0.00;0.00;;;;;;;;;;5100073;28;20581;-61
2021/06/11 15:40:48;;;;;;;1.33;0.77;;;;;;;;;;5089179;28;20274;-60
2021/06/11 15:43:17;;;;;;;3.43;1.00;;;;;;;;;;5095321;28;20529;-62
2021/06/11 15:45:53;;;;;;;0.67;0.30;;;;;;;;;;5107033;28;20188;-61
2021/06/11 15:48:21;;;;;;;1.80;1.60;;;;;;;;;;5103827;28;20186;-61
2021/06/11 15:50:51;;;;;;;0.00;0.00;;;;;;;;;;5099874;28;20194;-61
2021/06/11 15:53:20;;;;;;;7.33;2.10;;;;;;;;;;5096948;28;20650;-60
2021/06/11 15:55:47;;;;;;;5.50;0.97;;;;;;;;;;5096036;28;20232;-60
2021/06/11 15:58:17;;;;;;;7.20;1.77;;;;;;;;;;5098544;28;20184;-60
2021/06/11 16:00:44;;;;;;;2.17;0.47;;;;;;;;;;5095733;28;20192;-60
2021/06/11 16:03:13;;;;;;;1.30;0.63;;;;;;;;;;5096076;28;20184;-60
2021/06/11 16:05:43;;;;;;;0.00;0.00;;;;;;;;;;5098207;28;20411;-61
2021/06/11 16:08:10;;;;;;;0.00;0.00;;;;;;;;;;5085520;28;20207;-60
2021/06/11 16:10:38;;;;;;;3.40;2.30;;;;;;;;;;5086313;28;20186;-61
2021/06/11 16:13:05;;;;;;;0.00;0.00;;;;;;;;;;5084282;28;20201;-60
2021/06/11 16:15:31;;;;;;;2.67;2.30;;;;;;;;;;5086032;28;20207;-61
2021/06/11 16:18:00;;;;;;;0.03;0.03;;;;;;;;;;5081478;28;20222;-62
2021/06/11 16:20:27;;;;;;;0.20;0.20;;;;;;;;;;5080764;28;20192;-61
2021/06/11 16:22:53;;;;;;;0.20;0.20;;;;;;;;;;5080841;28;20192;-61
2021/06/11 16:25:21;;;;;;;18.43;17.00;;;;;;;;;;5084287;28;20190;-61
2021/06/11 16:27:49;;;;;;;0.00;0.00;;;;;;;;;;5083092;28;20272;-62
2021/06/11 16:30:15;;;;;;;7.20;4.20;;;;;;;;;;5082175;28;20186;-62
2021/06/11 16:32:49;;;;;;;0.13;0.13;;;;;;;;;;5081800;28;20193;-61
2021/06/11 16:35:16;;;;;;;0.87;0.87;;;;;;;;;;5081988;28;20566;-61
2021/06/11 16:37:42;;;;;;;5.20;3.20;;;;;;;;;;5081073;28;20342;-62
2021/06/11 16:40:10;;;;;;;0.00;0.00;;;;;;;;;;5082291;28;20190;-61
2021/06/11 16:42:37;;;;;;;0.00;0.00;;;;;;;;;;5081723;28;20185;-62
2021/06/11 16:45:04;;;;;;;0.00;0.00;;;;;;;;;;5083467;28;20200;-62
2021/06/11 16:47:34;;;;;;;0.10;0.10;;;;;;;;;;5080417;28;20247;-61
2021/06/11 16:50:02;;;;;;;1.57;1.03;;;;;;;;;;5085000;28;20199;-60
2021/06/11 16:52:32;;;;;;;5.00;1.80;;;;;;;;;;5086880;28;20196;-61
2021/06/11 16:55:00;;;;;;;1.80;0.83;;;;;;;;;;5090239;28;20257;-60
2021/06/11 16:57:36;;;;;;;0.00;0.00;;;;;;;;;;5093211;28;20276;-61
2021/06/11 17:00:07;;;;;;;1.10;0.97;;;;;;;;;;5094486;28;20227;-61
2021/06/11 17:02:36;;;;;;;2.43;1.50;;;;;;;;;;5087587;28;20278;-60
2021/06/11 17:05:21;;;;;;;8.77;1.83;;;;;;;;;;5079820;28;20182;-61
2021/06/11 17:10:47;;;;;;;8.80;2.27;;;;;;;;;;5098426;28;20190;-60
2021/06/11 17:13:22;;;;;;;0.00;0.00;;;;;;;;;;5092301;28;20182;-61
2021/06/11 17:15:54;;;;;;;0.63;0.63;;;;;;;;;;5091507;28;20260;-61
2021/06/11 17:18:21;;;;;;;0.20;0.20;;;;;;;;;;5090426;28;20254;-62
2021/06/11 17:20:55;;;;;;;0.27;0.27;;;;;;;;;;5084162;28;20259;-61
2021/06/11 17:23:23;;;;;;;0.83;0.40;;;;;;;;;;5091369;28;20193;-62
2021/06/11 17:25:58;;;;;;;3.03;0.67;;;;;;;;;;5094791;28;20194;-61
2021/06/11 17:31:33;;;;;;;0.43;0.23;;;;;;;;;;5087514;28;20284;-61
2021/06/11 17:34:01;;;;;;;0.73;0.73;;;;;;;;;;5081495;28;20208;-62
2021/06/11 17:36:29;;;;;;;0.93;0.57;;;;;;;;;;5090827;28;20233;-62
2021/06/11 17:39:07;;;;;;;4.13;2.03;;;;;;;;;;5087447;28;20784;-62
2021/06/11 17:41:34;;;;;;;4.13;0.63;;;;;;;;;;5084688;28;20189;-62
2021/06/11 17:44:13;;;;;;;4.43;0.47;;;;;;;;;;5089888;28;20247;-62
2021/06/11 17:46:47;;;;;;;0.73;0.40;;;;;;;;;;5090151;28;20565;-62
2021/06/11 17:49:14;;;;;;;0.67;0.67;;;;;;;;;;5088672;28;20339;-62
2021/06/11 17:51:41;;;;;;;0.43;0.43;;;;;;;;;;5085060;28;20562;-61
2021/06/11 17:54:13;;;;;;;1.33;0.70;;;;;;;;;;5086203;28;20205;-61
2021/06/11 17:57:00;;;;;;;0.30;0.30;;;;;;;;;;5087639;28;20283;-62
2021/06/11 17:59:37;;;;;;;4.63;1.30;;;;;;;;;;5075980;28;20653;-61
2021/06/11 18:02:15;;;;;;;0.00;0.00;;;;;;;;;;5087186;28;20193;-62
2021/06/11 18:04:43;;;;;;;2.47;1.50;;;;;;;;;;5086616;28;20178;-62
2021/06/11 18:07:16;;;;;;;0.00;0.00;;;;;;;;;;5089449;28;20191;-63
2021/06/11 18:09:43;;;;;;;0.00;0.00;;;;;;;;;;5089116;28;20198;-62
2021/06/11 18:12:17;;;;;;;0.10;0.10;;;;;;;;;;5088500;28;20894;-62
2021/06/11 18:14:53;;;;;;;0.20;0.20;;;;;;;;;;5081636;28;20224;-61
2021/06/11 18:17:20;;;;;;;4.53;0.77;;;;;;;;;;5084776;28;20688;-62
2021/06/11 18:19:47;;;;;;;1.73;1.03;;;;;;;;;;5082045;28;20186;-62
2021/06/11 18:22:22;;;;;;;10.10;0.83;;;;;;;;;;5072963;28;20187;-62
2021/06/11 18:24:49;;;;;;;1.33;0.23;;;;;;;;;;5077645;28;20983;-62
2021/06/11 18:27:20;;;;;;;2.77;0.57;;;;;;;;;;5080218;28;20174;-62
2021/06/11 18:29:50;;;;;;;4.37;2.33;;;;;;;;;;5080988;28;20233;-62
2021/06/11 18:32:22;;;;;;;0.80;0.57;;;;;;;;;;5083625;28;20785;-62
2021/06/11 18:34:51;;;;;;;0.80;0.80;;;;;;;;;;5083383;28;20244;-63
2021/06/11 18:37:20;;;;;;;2.20;1.17;;;;;;;;;;5083751;28;20217;-62
2021/06/11 18:39:48;;;;;;;1.53;1.33;;;;;;;;;;5083676;28;20178;-63
2021/06/11 18:42:14;;;;;;;0.00;0.00;;;;;;;;;;5081029;28;20189;-64
2021/06/11 18:44:44;;;;;;;0.40;0.17;;;;;;;;;;5080377;28;20178;-64
2021/06/11 18:47:16;;;;;;;0.10;0.10;;;;;;;;;;5070643;28;20278;-62
2021/06/11 18:49:46;;;;;;;0.27;0.13;;;;;;;;;;5070847;28;20186;-62
2021/06/11 18:52:13;;;;;;;0.23;0.23;;;;;;;;;;5065124;28;20187;-62
2021/06/11 18:54:40;;;;;;;1.10;0.20;;;;;;;;;;5071434;28;20911;-62
2021/06/11 18:57:11;;;;;;;0.00;0.00;;;;;;;;;;5076382;28;20227;-62
2021/06/11 18:59:40;;;;;;;0.83;0.83;;;;;;;;;;5078606;28;20197;-62
2021/06/11 19:02:18;;;;;;;1.27;0.20;;;;;;;;;;5077328;28;20190;-62
2021/06/11 19:04:45;;;;;;;3.83;1.60;;;;;;;;;;5075307;28;20697;-62
2021/06/11 19:07:12;;;;;;;0.00;0.00;;;;;;;;;;5079294;28;20343;-62
2021/06/11 19:09:44;;;;;;;0.07;0.00;;;;;;;;;;5070597;28;20187;-63
2021/06/11 19:12:15;;;;;;;5.03;0.93;;;;;;;;;;5077354;28;20283;-62
2021/06/11 19:14:44;;;;;;;3.50;0.60;;;;;;;;;;5077742;28;20187;-62
2021/06/11 19:17:11;;;;;;;0.13;0.13;;;;;;;;;;5078723;28;20221;-62
2021/06/11 19:19:51;;;;;;;1.70;0.17;;;;;;;;;;5077237;28;20791;-62
2021/06/11 19:22:22;;;;;;;0.77;0.77;;;;;;;;;;5077955;28;20189;-63
2021/06/11 19:25:18;;;;;;;0.00;0.00;;;;;;;;;;5080201;28;20211;-62
2021/06/11 19:27:45;;;;;;;0.30;0.30;;;;;;;;;;5075072;28;20202;-62
2021/06/11 19:30:16;;;;;;;0.00;0.00;;;;;;;;;;5076280;28;20192;-63
2021/06/11 19:32:43;;;;;;;1.13;1.03;;;;;;;;;;5081026;28;20205;-63
2021/06/11 19:35:10;;;;;;;1.80;1.30;;;;;;;;;;5077790;28;20278;-63
2021/06/11 19:37:38;;;;;;;2.73;2.53;;;;;;;;;;5077792;28;20208;-63
2021/06/11 19:40:26;;;;;;;0.10;0.10;;;;;;;;;;5077129;28;20287;-63
2021/06/11 19:42:57;;;;;;;0.00;0.00;;;;;;;;;;5081031;28;20280;-65
2021/06/11 19:45:25;;;;;;;0.33;0.17;;;;;;;;;;5089828;28;20681;-65
2021/06/11 19:48:01;;;;;;;0.00;0.00;;;;;;;;;;5089725;28;20326;-64
2021/06/11 19:50:35;;;;;;;0.30;0.30;;;;;;;;;;5085363;28;20196;-65
2021/06/11 19:53:04;;;;;;;0.30;0.30;;;;;;;;;;5084614;28;20880;-65
2021/06/11 19:55:35;;;;;;;0.30;0.30;;;;;;;;;;5081062;28;20225;-65
2021/06/11 19:58:02;;;;;;;0.50;0.50;;;;;;;;;;5084194;28;20229;-64
2021/06/11 20:00:30;;;;;;;0.13;0.13;;;;;;;;;;5074169;28;20651;-64
2021/06/11 20:02:57;;;;;;;0.00;0.00;;;;;;;;;;5073310;28;20302;-64
2021/06/11 20:05:24;;;;;;;0.80;0.63;;;;;;;;;;5086152;28;20178;-64
2021/06/11 20:07:51;;;;;;;2.33;2.23;;;;;;;;;;5077030;28;20183;-64
2021/06/11 20:10:18;;;;;;;0.00;0.00;;;;;;;;;;5081608;28;20193;-64
2021/06/11 20:12:44;;;;;;;0.30;0.30;;;;;;;;;;5079162;28;20185;-65
2021/06/11 20:15:16;;;;;;;0.00;0.00;;;;;;;;;;5080560;28;20189;-65
2021/06/11 20:17:44;;;;;;;0.93;0.93;;;;;;;;;;5084844;28;20256;-66
2021/06/11 20:20:12;;;;;;;1.27;0.87;;;;;;;;;;5087588;28;20186;-65
2021/06/11 20:22:39;;;;;;;1.37;1.03;;;;;;;;;;5085440;28;20544;-66
2021/06/11 20:25:06;;;;;;;1.60;0.30;;;;;;;;;;5085444;28;20189;-66
2021/06/11 20:27:32;;;;;;;0.73;0.33;;;;;;;;;;5078916;28;20851;-65
2021/06/11 20:29:59;;;;;;;0.30;0.30;;;;;;;;;;5077795;28;20182;-65
2021/06/11 20:32:27;;;;;;;0.00;0.00;;;;;;;;;;5079899;28;20554;-65
2021/06/11 20:34:54;;;;;;;1.07;0.73;;;;;;;;;;5082007;28;20726;-63
2021/06/11 20:37:21;;;;;;;1.50;1.40;;;;;;;;;;5073496;28;20214;-63
2021/06/11 20:40:06;;;;;;;2.03;0.77;;;;;;;;;;5079922;28;20196;-63
2021/06/11 20:42:44;;;;;;;0.20;0.20;;;;;;;;;;5088714;28;20390;-64
2021/06/11 20:45:25;;;;;;;5.50;1.03;;;;;;;;;;5081514;28;20197;-64
2021/06/11 20:48:03;;;;;;;0.20;0.17;;;;;;;;;;5087214;28;20651;-64
2021/06/11 20:53:42;;;;;;;1.50;1.27;;;;;;;;;;5093745;28;20630;-64
2021/06/11 20:56:08;;;;;;;0.57;0.57;;;;;;;;;;5091922;28;20225;-64
2021/06/11 20:58:50;;;;;;;0.10;0.10;;;;;;;;;;5093160;28;20275;-64
2021/06/11 21:01:45;;;;;;;0.20;0.20;;;;;;;;;;5093576;28;20271;-64
2021/06/11 21:04:29;;;;;;;7.20;1.13;;;;;;;;;;5092234;28;20219;-64
2021/06/11 21:07:25;;;;;;;3.00;1.10;;;;;;;;;;5093066;28;20199;-64
2021/06/11 21:10:12;;;;;;;3.63;1.90;;;;;;;;;;5081948;28;20321;-64
2021/06/11 21:13:03;;;;;;;4.33;0.87;;;;;;;;;;5090296;28;20239;-64
2021/06/11 21:15:31;;;;;;;7.63;5.67;;;;;;;;;;5087602;28;20177;-65
2021/06/11 21:17:58;;;;;;;1.50;1.00;;;;;;;;;;5082624;28;20407;-65
2021/06/11 21:20:38;;;;;;;3.93;0.80;;;;;;;;;;5071532;28;20244;-64
2021/06/11 21:26:08;;;;;;;0.00;0.00;;;;;;;;;;5095527;28;20170;-64
2021/06/11 21:31:39;;;;;;;0.73;0.73;;;;;;;;;;5095001;28;20158;-65
2021/06/11 21:37:09;;;;;;;0.47;0.47;;;;;;;;;;5094747;28;20210;-64
2021/06/11 21:40:08;;;;;;;0.00;0.00;;;;;;;;;;5094707;28;20578;-65
2021/06/11 21:45:40;;;;;;;2.47;0.40;;;;;;;;;;5094871;28;20618;-64
2021/06/11 21:51:10;;;;;;;0.43;0.33;;;;;;;;;;5094762;28;20158;-63
2021/06/11 21:54:04;;;;;;;12.40;3.77;;;;;;;;;;5094041;28;20610;-63
2021/06/11 21:59:37;;;;;;;5.83;1.13;;;;;;;;;;5094489;28;20156;-64
2021/06/11 22:02:15;;;;;;;2.13;0.77;;;;;;;;;;5093975;28;20229;-63
2021/06/11 22:07:45;;;;;;;0.00;0.00;;;;;;;;;;5073810;28;20529;-64
2021/06/11 22:13:16;;;;;;;0.00;0.00;;;;;;;;;;5074038;28;20154;-63
2021/06/11 22:18:46;;;;;;;0.10;0.10;;;;;;;;;;5074166;28;20183;-64
2021/06/11 22:24:16;;;;;;;5.47;1.23;;;;;;;;;;5073783;28;20206;-63
2021/06/11 22:29:48;;;;;;;0.00;0.00;;;;;;;;;;5073916;28;20169;-63
2021/06/11 22:35:18;;;;;;;0.00;0.00;;;;;;;;;;5084806;28;20632;-63
2021/06/11 22:40:49;;;;;;;1.07;1.07;;;;;;;;;;5093741;28;20210;-63
2021/06/11 22:46:19;;;;;;;33.00;9.63;;;;;;;;;;5093771;28;20694;-63
2021/06/11 22:51:49;;;;;;;0.00;0.00;;;;;;;;;;5094395;28;20492;-63
2021/06/11 22:57:19;;;;;;;0.13;0.13;;;;;;;;;;5080038;28;20254;-63
2021/06/11 23:02:49;;;;;;;0.00;0.00;;;;;;;;;;5093382;28;20586;-63
2021/06/11 23:08:19;;;;;;;2.90;0.73;;;;;;;;;;5093558;28;20248;-63
2021/06/11 23:13:49;;;;;;;0.03;0.03;;;;;;;;;;5094085;28;20238;-64
2021/06/11 23:16:45;;;;;;;1.00;0.97;;;;;;;;;;5093343;28;20289;-62
2021/06/11 23:22:15;;;;;;;1.50;1.03;;;;;;;;;;5097458;28;20153;-63
2021/06/11 23:27:45;;;;;;;0.00;0.00;;;;;;;;;;5076909;28;20159;-63
2021/06/11 23:30:46;;;;;;;1.73;1.63;;;;;;;;;;5076612;28;20180;-63
2021/06/11 23:36:16;;;;;;;0.53;0.40;;;;;;;;;;5096290;28;20243;-63
2021/06/11 23:41:46;;;;;;;1.83;1.20;;;;;;;;;;5096372;28;20213;-63
2021/06/11 23:47:16;;;;;;;0.03;0.03;;;;;;;;;;5092583;28;20193;-63
2021/06/11 23:52:47;;;;;;;16.87;0.60;;;;;;;;;;5089201;28;20182;-63
2021/06/11 23:55:26;;;;;;;0.40;0.40;;;;;;;;;;5094957;28;20178;-63
2021/06/11 23:57:55;;;;;;;1.50;0.10;;;;;;;;;;5094402;28;20233;-64
